createdAt,value
2018-04-23T00:02:53.334Z,12.80
2018-04-23T00:06:56.384Z,12.70
2018-04-23T00:11:01.227Z,12.60
2018-04-23T00:15:04.388Z,12.60
2018-04-23T00:19:07.243Z,12.60
2018-04-23T00:23:10.932Z,12.40
2018-04-23T00:27:14.444Z,12.40
2018-04-23T00:31:17.325Z,12.40
2018-04-23T00:35:21.094Z,12.40
2018-04-23T00:39:25.408Z,12.30
2018-04-23T00:43:28.937Z,12.30
2018-04-23T00:47:31.894Z,12.40
2018-04-23T00:51:34.728Z,12.40
2018-04-23T00:55:38.292Z,12.20
2018-04-23T00:59:41.256Z,12.20
2018-04-23T01:03:45.010Z,12.20
2018-04-23T01:07:48.133Z,12.20
2018-04-23T01:11:51.875Z,12.40
2018-04-23T01:15:54.775Z,12.30
2018-04-23T01:19:59.450Z,12.40
2018-04-23T01:24:03.307Z,12.30
2018-04-23T01:28:06.354Z,12.30
2018-04-23T01:32:09.593Z,12.30
2018-04-23T01:36:13.412Z,12.30
2018-04-23T01:40:16.258Z,12.20
2018-04-23T01:44:19.545Z,12.10
2018-04-23T01:48:23.274Z,12.10
2018-04-23T01:52:26.245Z,12.10
2018-04-23T01:56:29.901Z,12.00
2018-04-23T02:00:33.004Z,11.90
2018-04-23T02:04:36.538Z,11.80
2018-04-23T02:08:39.395Z,11.70
2018-04-23T02:12:42.272Z,11.70
2018-04-23T02:16:46.202Z,11.50
2018-04-23T02:20:49.162Z,11.50
2018-04-23T02:24:52.415Z,11.50
2018-04-23T02:28:55.527Z,11.40
2018-04-23T02:32:58.353Z,11.40
2018-04-23T02:37:01.674Z,11.30
2018-04-23T02:41:06.195Z,11.30
2018-04-23T02:45:09.051Z,11.30
2018-04-23T02:49:12.297Z,11.20
2018-04-23T02:53:15.997Z,11.20
2018-04-23T02:57:19.220Z,11.20
2018-04-23T03:01:23.103Z,11.20
2018-04-23T03:05:26.201Z,11.20
2018-04-23T03:09:29.435Z,11.10
2018-04-23T03:13:32.376Z,11.00
2018-04-23T03:17:35.214Z,11.00
2018-04-23T03:21:39.029Z,10.80
2018-04-23T03:25:42.094Z,10.80
2018-04-23T03:29:44.898Z,10.80
2018-04-23T03:33:47.609Z,10.70
2018-04-23T03:37:50.369Z,10.70
2018-04-23T03:41:53.137Z,10.70
2018-04-23T03:45:56.658Z,10.70
2018-04-23T03:50:00.168Z,10.60
2018-04-23T03:54:03.217Z,10.60
2018-04-23T03:58:06.043Z,10.60
2018-04-23T04:02:08.766Z,10.50
2018-04-23T04:06:12.284Z,10.40
2018-04-23T04:10:15.011Z,10.40
2018-04-23T04:14:29.562Z,10.50
2018-04-23T04:18:44.400Z,10.40
2018-04-23T04:22:47.161Z,10.40
2018-04-23T04:26:49.883Z,10.40
2018-04-23T04:30:52.796Z,10.40
2018-04-23T04:34:56.279Z,10.50
2018-04-23T04:38:59.089Z,10.50
2018-04-23T04:43:02.016Z,10.50
2018-04-23T04:47:04.768Z,10.50
2018-04-23T04:51:07.556Z,10.60
2018-04-23T04:55:10.308Z,10.70
2018-04-23T04:59:13.833Z,10.90
2018-04-23T05:03:16.638Z,10.90
2018-04-23T05:07:20.334Z,11.10
2018-04-23T05:11:23.938Z,11.30
2018-04-23T05:15:26.640Z,11.30
2018-04-23T05:19:30.213Z,11.70
2018-04-23T05:23:33.022Z,11.70
2018-04-23T05:27:36.078Z,11.90
2018-04-23T05:31:38.962Z,12.00
2018-04-23T05:35:41.710Z,12.20
2018-04-23T05:39:44.579Z,12.40
2018-04-23T05:43:47.419Z,12.60
2018-04-23T05:47:51.034Z,12.80
2018-04-23T05:51:53.793Z,12.80
2018-04-23T05:55:56.520Z,13.00
2018-04-23T05:59:59.319Z,13.10
2018-04-23T06:04:02.081Z,13.30
2018-04-23T06:08:04.852Z,13.50
2018-04-23T06:12:08.528Z,13.70
2018-04-23T06:16:12.082Z,13.80
2018-04-23T06:20:15.728Z,13.80
2018-04-23T06:24:18.463Z,13.70
2018-04-23T06:28:21.166Z,13.90
2018-04-23T06:32:23.923Z,14.20
2018-04-23T06:36:26.669Z,14.50
2018-04-23T06:40:29.405Z,14.80
2018-04-23T06:44:32.243Z,15.10
2018-04-23T06:48:35.010Z,15.30
2018-04-23T06:52:38.815Z,15.50
2018-04-23T06:56:42.345Z,16.10
2018-04-23T07:00:45.106Z,16.10
2018-04-23T07:04:47.847Z,16.40
2018-04-23T07:08:50.599Z,16.70
2018-04-23T07:12:53.394Z,17.10
2018-04-23T07:16:56.145Z,17.40
2018-04-23T07:20:59.016Z,17.70
2018-04-23T07:25:01.841Z,18.10
2018-04-23T07:29:04.644Z,18.50
2018-04-23T07:33:07.433Z,19.00
2018-04-23T07:37:10.186Z,19.50
2018-04-23T07:41:12.918Z,20.00
2018-04-23T07:45:15.721Z,20.50
2018-04-23T07:49:18.454Z,21.00
2018-04-23T07:53:21.193Z,21.40
2018-04-23T07:57:24.687Z,22.50
2018-04-23T08:01:27.717Z,22.50
2018-04-23T08:05:31.183Z,23.30
2018-04-23T08:09:33.940Z,23.30
2018-04-23T08:13:36.681Z,23.10
2018-04-23T08:17:39.395Z,23.20
2018-04-23T08:21:42.124Z,23.70
2018-04-23T08:25:45.084Z,24.20
2018-04-23T08:29:47.809Z,24.30
2018-04-23T08:33:51.389Z,23.90
2018-04-23T08:37:54.144Z,23.90
2018-04-23T08:41:56.854Z,24.40
2018-04-23T08:45:59.845Z,24.80
2018-04-23T08:50:02.711Z,25.40
2018-04-23T08:54:05.438Z,26.10
2018-04-23T08:58:09.005Z,25.90
2018-04-23T09:02:11.811Z,25.80
2018-04-23T09:06:14.809Z,27.30
2018-04-23T09:10:17.608Z,27.80
2018-04-23T09:14:20.336Z,28.30
2018-04-23T09:18:23.824Z,28.70
2018-04-23T09:22:26.570Z,28.60
2018-04-23T09:26:29.313Z,28.60
2018-04-23T09:30:32.026Z,28.10
2018-04-23T09:34:34.835Z,29.40
2018-04-23T09:38:38.346Z,31.10
2018-04-23T09:42:41.906Z,30.60
2018-04-23T09:46:44.639Z,30.50
2018-04-23T09:50:47.494Z,30.50
2018-04-23T09:54:52.318Z,29.80
2018-04-23T09:58:55.081Z,30.70
2018-04-23T10:03:14.787Z,30.80
2018-04-23T10:07:17.492Z,32.00
2018-04-23T10:11:20.565Z,31.90
2018-04-23T10:15:24.319Z,32.30
2018-04-23T10:19:27.099Z,33.30
2018-04-23T10:23:31.022Z,32.80
2018-04-23T10:27:34.561Z,32.20
2018-04-23T10:31:37.251Z,32.20
2018-04-23T10:35:40.155Z,33.80
2018-04-23T10:39:42.936Z,33.50
2018-04-23T10:43:46.405Z,33.60
2018-04-23T10:47:50.261Z,33.60
2018-04-23T10:51:53.784Z,33.90
2018-04-23T10:55:56.566Z,33.80
2018-04-23T10:59:59.288Z,34.00
2018-04-23T11:04:02.044Z,34.20
2018-04-23T11:08:05.661Z,31.70
2018-04-23T11:12:08.400Z,29.50
2018-04-23T11:16:11.150Z,29.30
2018-04-23T11:20:13.924Z,30.70
2018-04-23T11:24:16.645Z,30.80
2018-04-23T11:28:20.454Z,30.70
2018-04-23T11:32:23.213Z,29.80
2018-04-23T11:36:26.010Z,29.50
2018-04-23T11:40:28.771Z,28.90
2018-04-23T11:44:31.498Z,27.90
2018-04-23T11:48:35.026Z,27.10
2018-04-23T11:52:37.743Z,27.10
2018-04-23T11:56:40.469Z,26.90
2018-04-23T12:00:43.293Z,27.20
2018-04-23T12:04:46.804Z,27.60
2018-04-23T12:08:50.323Z,28.40
2018-04-23T12:12:53.779Z,28.50
2018-04-23T12:16:56.586Z,28.50
2018-04-23T12:20:59.331Z,27.70
2018-04-23T12:25:02.840Z,27.80
2018-04-23T12:29:05.663Z,27.80
2018-04-23T12:33:08.404Z,28.60
2018-04-23T12:37:11.169Z,29.50
2018-04-23T12:41:13.902Z,29.90
2018-04-23T12:45:18.174Z,28.40
2018-04-23T12:49:23.181Z,27.50
2018-04-23T12:53:25.919Z,27.50
2018-04-23T12:57:28.704Z,27.40
2018-04-23T13:01:32.739Z,30.50
2018-04-23T13:05:36.231Z,28.90
2018-04-23T13:09:39.075Z,28.90
2018-04-23T13:13:41.794Z,29.00
2018-04-23T13:17:44.591Z,27.80
2018-04-23T13:21:47.575Z,27.70
2018-04-23T13:25:50.405Z,28.50
2018-04-23T13:29:53.235Z,28.80
2018-04-23T13:33:55.984Z,28.80
2018-04-23T13:37:58.839Z,28.70
2018-04-23T13:42:02.421Z,28.10
2018-04-23T13:46:05.194Z,28.10
2018-04-23T13:50:08.113Z,27.70
2018-04-23T13:54:10.833Z,27.50
2018-04-23T13:58:13.558Z,27.20
2018-04-23T14:02:16.824Z,26.80
2018-04-23T14:06:20.318Z,26.40
2018-04-23T14:10:23.267Z,26.30
2018-04-23T14:14:26.001Z,26.00
2018-04-23T14:18:28.802Z,26.10
2018-04-23T14:22:31.750Z,26.50
2018-04-23T14:26:34.500Z,26.30
2018-04-23T14:30:37.246Z,26.00
2018-04-23T14:34:39.992Z,25.80
2018-04-23T14:38:42.781Z,25.60
2018-04-23T14:42:46.366Z,26.30
2018-04-23T14:46:49.129Z,26.20
2018-04-23T14:50:51.994Z,26.00
2018-04-23T14:54:55.519Z,25.20
2018-04-23T14:58:58.220Z,25.20
2018-04-23T15:03:00.994Z,25.10
2018-04-23T15:07:04.481Z,25.10
2018-04-23T15:11:07.209Z,25.10
2018-04-23T15:15:10.699Z,24.90
2018-04-23T15:19:13.548Z,24.80
2018-04-23T15:23:16.247Z,24.50
2018-04-23T15:27:19.725Z,23.90
2018-04-23T15:31:23.284Z,24.50
2018-04-23T15:35:27.453Z,24.40
2018-04-23T15:39:30.208Z,24.30
2018-04-23T15:43:33.296Z,24.40
2018-04-23T15:47:36.045Z,24.20
2018-04-23T15:51:38.781Z,23.90
2018-04-23T15:55:41.817Z,23.50
2018-04-23T15:59:44.530Z,23.20
2018-04-23T16:03:47.265Z,22.90
2018-04-23T16:07:52.409Z,22.50
2018-04-23T16:11:55.881Z,22.40
2018-04-23T16:15:58.674Z,22.40
2018-04-23T16:20:02.288Z,22.10
2018-04-23T16:24:05.026Z,22.00
2018-04-23T16:28:07.996Z,21.80
2018-04-23T16:32:10.729Z,21.60
2018-04-23T16:36:13.643Z,21.00
2018-04-23T16:40:17.115Z,19.20
2018-04-23T16:44:19.950Z,19.10
2018-04-23T16:48:22.884Z,18.80
2018-04-23T16:52:25.602Z,18.40
2018-04-23T16:56:28.354Z,17.80
2018-04-23T17:00:31.878Z,17.50
2018-04-23T17:04:35.785Z,17.40
2018-04-23T17:08:39.362Z,17.00
2018-04-23T17:12:42.102Z,17.00
2018-04-23T17:16:45.642Z,17.00
2018-04-23T17:20:48.399Z,16.90
2018-04-23T17:24:51.157Z,17.00
2018-04-23T17:28:53.951Z,17.00
2018-04-23T17:32:56.700Z,16.80
2018-04-23T17:37:01.367Z,16.50
2018-04-23T17:41:04.098Z,16.50
2018-04-23T17:45:06.836Z,16.30
2018-04-23T17:49:10.347Z,16.10
2018-04-23T17:53:13.870Z,16.00
2018-04-23T17:57:17.521Z,16.00
2018-04-23T18:01:20.314Z,16.00
2018-04-23T18:05:23.128Z,15.90
2018-04-23T18:09:25.992Z,15.80
2018-04-23T18:13:29.493Z,15.70
2018-04-23T18:17:33.233Z,15.70
2018-04-23T18:21:36.238Z,15.70
2018-04-23T18:25:39.004Z,15.60
2018-04-23T18:29:41.987Z,15.60
2018-04-23T18:33:44.793Z,15.60
2018-04-23T18:37:47.674Z,15.70
2018-04-23T18:41:51.200Z,15.80
2018-04-23T18:45:54.273Z,15.70
2018-04-23T18:49:57.371Z,15.80
2018-04-23T18:54:00.086Z,16.20
2018-04-23T18:58:02.978Z,16.60
2018-04-23T19:02:05.932Z,16.80
2018-04-23T19:06:08.750Z,17.10
2018-04-23T19:10:11.745Z,17.40
2018-04-23T19:14:16.774Z,17.40
2018-04-23T19:18:19.857Z,17.40
2018-04-23T19:22:22.750Z,16.90
2018-04-23T19:26:25.477Z,16.90
2018-04-23T19:30:28.479Z,17.10
2018-04-23T19:34:31.235Z,17.30
2018-04-23T19:38:34.052Z,16.60
2018-04-23T19:42:36.833Z,16.20
2018-04-23T19:46:39.594Z,16.10
2018-04-23T19:50:43.171Z,15.60
2018-04-23T19:54:45.865Z,15.60
2018-04-23T19:58:48.611Z,15.30
2018-04-23T20:02:51.434Z,15.00
2018-04-23T20:06:54.223Z,14.50
2018-04-23T20:10:57.062Z,14.40
2018-04-23T20:14:59.927Z,14.20
2018-04-23T20:19:02.746Z,14.10
2018-04-23T20:23:05.614Z,14.20
2018-04-23T20:27:08.362Z,14.20
2018-04-23T20:31:11.154Z,14.30
2018-04-23T20:35:13.877Z,14.20
2018-04-23T20:39:17.396Z,14.20
2018-04-23T20:43:20.977Z,14.10
2018-04-23T20:47:23.898Z,14.00
2018-04-23T20:51:26.634Z,14.10
2018-04-23T20:55:30.452Z,14.00
2018-04-23T20:59:33.199Z,14.00
2018-04-23T21:03:36.041Z,14.00
2018-04-23T21:07:39.547Z,13.90
2018-04-23T21:11:43.062Z,13.90
2018-04-23T21:15:46.565Z,13.90
2018-04-23T21:19:50.027Z,13.90
2018-04-23T21:23:52.882Z,14.00
2018-04-23T21:27:55.779Z,13.90
2018-04-23T21:31:58.537Z,14.00
2018-04-23T21:36:01.272Z,14.00
2018-04-23T21:40:04.780Z,13.90
2018-04-23T21:44:07.546Z,13.90
2018-04-23T21:48:10.278Z,13.80
2018-04-23T21:52:12.991Z,13.80
2018-04-23T21:56:16.580Z,13.70
2018-04-23T22:00:19.403Z,13.70
2018-04-23T22:04:23.019Z,13.80
2018-04-23T22:08:26.530Z,13.70
2018-04-23T22:12:30.034Z,13.70
2018-04-23T22:16:32.759Z,13.70
2018-04-23T22:20:35.601Z,13.70
2018-04-23T22:24:38.330Z,13.80
2018-04-23T22:28:41.073Z,13.70
2018-04-23T22:32:43.835Z,13.60
2018-04-23T22:36:47.347Z,13.60
2018-04-23T22:40:50.851Z,13.70
2018-04-23T22:44:53.618Z,13.70
2018-04-23T22:48:56.333Z,13.90
2018-04-23T22:52:59.115Z,14.00
2018-04-23T22:57:01.858Z,14.00
2018-04-23T23:01:05.346Z,14.10
2018-04-23T23:05:08.060Z,14.00
2018-04-23T23:09:10.849Z,14.00
2018-04-23T23:13:13.568Z,14.10
2018-04-23T23:17:17.080Z,14.20
2018-04-23T23:21:19.818Z,14.10
2018-04-23T23:25:22.530Z,14.10
2018-04-23T23:29:26.035Z,13.80
2018-04-23T23:33:28.771Z,13.80
2018-04-23T23:37:31.443Z,13.60
2018-04-23T23:41:35.395Z,13.50
2018-04-23T23:45:38.993Z,13.20
2018-04-23T23:49:42.795Z,13.20
2018-04-23T23:53:45.581Z,13.10
2018-04-23T23:57:48.277Z,12.90
